sensor_id;sensor_type;location;lat;lon;timestamp;P1;durP1;ratioP1;P2;durP2;ratioP2
13432;SDS011;6789;47.678;9.158;2023-08-06T00:04:53;4.05;;;3.00;;
13432;SDS011;6789;47.678;9.158;2023-08-06T00:09:59;3.13;;;2.70;;
13432;SDS011;6789;47.678;9.158;2023-08-06T00:15:05;3.70;;;2.88;;
13432;SDS011;6789;47.678;9.158;2023-08-06T00:20:12;3.58;;;2.80;;
13432;SDS011;6789;47.678;9.158;2023-08-06T00:25:21;3.08;;;2.78;;
13432;SDS011;6789;47.678;9.158;2023-08-06T00:30:37;4.05;;;2.42;;
13432;SDS011;6789;47.678;9.158;2023-08-06T00:35:32;2.70;;;2.50;;
13432;SDS011;6789;47.678;9.158;2023-08-06T00:40:23;3.08;;;2.72;;
13432;SDS011;6789;47.678;9.158;2023-08-06T00:45:29;3.30;;;3.00;;
13432;SDS011;6789;47.678;9.158;2023-08-06T00:50:50;3.20;;;2.80;;
13432;SDS011;6789;47.678;9.158;2023-08-06T00:56:06;2.60;;;2.40;;
13432;SDS011;6789;47.678;9.158;2023-08-06T01:01:18;3.28;;;2.70;;
13432;SDS011;6789;47.678;9.158;2023-08-06T01:06:10;3.22;;;2.83;;
13432;SDS011;6789;47.678;9.158;2023-08-06T01:11:32;4.95;;;2.80;;
13432;SDS011;6789;47.678;9.158;2023-08-06T01:17:14;3.75;;;2.15;;
13432;SDS011;6789;47.678;9.158;2023-08-06T01:22:21;3.53;;;2.53;;
13432;SDS011;6789;47.678;9.158;2023-08-06T01:27:31;3.60;;;2.60;;
13432;SDS011;6789;47.678;9.158;2023-08-06T01:32:57;3.03;;;2.42;;
13432;SDS011;6789;47.678;9.158;2023-08-06T01:38:40;3.30;;;2.40;;
13432;SDS011;6789;47.678;9.158;2023-08-06T01:43:58;4.50;;;2.60;;
13432;SDS011;6789;47.678;9.158;2023-08-06T01:49:06;3.03;;;2.53;;
13432;SDS011;6789;47.678;9.158;2023-08-06T01:54:14;3.95;;;2.50;;
13432;SDS011;6789;47.678;9.158;2023-08-06T01:59:06;3.25;;;2.47;;
13432;SDS011;6789;47.678;9.158;2023-08-06T02:03:57;3.53;;;2.40;;
13432;SDS011;6789;47.678;9.158;2023-08-06T02:09:35;2.58;;;2.30;;
13432;SDS011;6789;47.678;9.158;2023-08-06T02:14:27;3.30;;;2.55;;
13432;SDS011;6789;47.678;9.158;2023-08-06T02:19:33;2.55;;;2.17;;
13432;SDS011;6789;47.678;9.158;2023-08-06T02:24:24;5.43;;;2.35;;
13432;SDS011;6789;47.678;9.158;2023-08-06T02:29:30;2.75;;;2.22;;
13432;SDS011;6789;47.678;9.158;2023-08-06T02:34:37;3.67;;;2.65;;
13432;SDS011;6789;47.678;9.158;2023-08-06T02:39:44;3.63;;;2.63;;
13432;SDS011;6789;47.678;9.158;2023-08-06T02:44:35;3.00;;;2.33;;
13432;SDS011;6789;47.678;9.158;2023-08-06T02:49:27;3.88;;;2.33;;
13432;SDS011;6789;47.678;9.158;2023-08-06T02:54:19;2.95;;;2.10;;
13432;SDS011;6789;47.678;9.158;2023-08-06T02:59:11;2.53;;;1.85;;
13432;SDS011;6789;47.678;9.158;2023-08-06T03:04:03;2.35;;;1.63;;
13432;SDS011;6789;47.678;9.158;2023-08-06T03:08:55;1.92;;;1.73;;
13432;SDS011;6789;47.678;9.158;2023-08-06T03:13:47;1.65;;;1.55;;
13432;SDS011;6789;47.678;9.158;2023-08-06T03:18:39;1.73;;;1.60;;
13432;SDS011;6789;47.678;9.158;2023-08-06T03:23:31;1.73;;;1.63;;
13432;SDS011;6789;47.678;9.158;2023-08-06T03:28:23;2.95;;;1.80;;
13432;SDS011;6789;47.678;9.158;2023-08-06T03:33:15;2.03;;;1.60;;
13432;SDS011;6789;47.678;9.158;2023-08-06T03:38:06;2.75;;;1.52;;
13432;SDS011;6789;47.678;9.158;2023-08-06T03:42:58;2.20;;;1.77;;
13432;SDS011;6789;47.678;9.158;2023-08-06T03:47:50;2.75;;;1.90;;
13432;SDS011;6789;47.678;9.158;2023-08-06T03:52:42;4.32;;;1.58;;
13432;SDS011;6789;47.678;9.158;2023-08-06T03:57:34;2.47;;;1.40;;
13432;SDS011;6789;47.678;9.158;2023-08-06T04:02:42;1.40;;;1.30;;
13432;SDS011;6789;47.678;9.158;2023-08-06T04:07:34;1.83;;;1.48;;
13432;SDS011;6789;47.678;9.158;2023-08-06T04:12:26;2.47;;;1.58;;
13432;SDS011;6789;47.678;9.158;2023-08-06T04:17:19;1.77;;;1.40;;
13432;SDS011;6789;47.678;9.158;2023-08-06T04:22:12;1.27;;;1.17;;
13432;SDS011;6789;47.678;9.158;2023-08-06T04:27:03;1.17;;;1.08;;
13432;SDS011;6789;47.678;9.158;2023-08-06T04:31:55;5.95;;;1.23;;
13432;SDS011;6789;47.678;9.158;2023-08-06T04:36:48;1.48;;;1.20;;
13432;SDS011;6789;47.678;9.158;2023-08-06T04:41:40;1.48;;;1.17;;
13432;SDS011;6789;47.678;9.158;2023-08-06T04:46:31;1.15;;;0.93;;
13432;SDS011;6789;47.678;9.158;2023-08-06T04:51:23;1.90;;;1.00;;
13432;SDS011;6789;47.678;9.158;2023-08-06T04:56:16;0.93;;;0.80;;
13432;SDS011;6789;47.678;9.158;2023-08-06T05:01:08;2.00;;;0.70;;
13432;SDS011;6789;47.678;9.158;2023-08-06T05:06:00;1.35;;;0.50;;
13432;SDS011;6789;47.678;9.158;2023-08-06T05:10:51;1.27;;;0.60;;
13432;SDS011;6789;47.678;9.158;2023-08-06T05:15:43;3.53;;;0.80;;
13432;SDS011;6789;47.678;9.158;2023-08-06T05:20:37;0.85;;;0.30;;
13432;SDS011;6789;47.678;9.158;2023-08-06T05:25:31;1.75;;;0.43;;
13432;SDS011;6789;47.678;9.158;2023-08-06T05:30:25;1.40;;;0.35;;
13432;SDS011;6789;47.678;9.158;2023-08-06T05:35:17;2.83;;;0.38;;
13432;SDS011;6789;47.678;9.158;2023-08-06T05:40:10;0.88;;;0.40;;
13432;SDS011;6789;47.678;9.158;2023-08-06T05:45:02;0.73;;;0.32;;
13432;SDS011;6789;47.678;9.158;2023-08-06T05:49:53;1.20;;;0.30;;
13432;SDS011;6789;47.678;9.158;2023-08-06T05:54:45;0.20;;;0.20;;
13432;SDS011;6789;47.678;9.158;2023-08-06T05:59:37;0.80;;;0.15;;
13432;SDS011;6789;47.678;9.158;2023-08-06T06:04:31;0.00;;;0.00;;
13432;SDS011;6789;47.678;9.158;2023-08-06T06:09:22;0.30;;;0.20;;
13432;SDS011;6789;47.678;9.158;2023-08-06T06:14:14;0.28;;;0.20;;
13432;SDS011;6789;47.678;9.158;2023-08-06T06:19:07;0.68;;;0.40;;
13432;SDS011;6789;47.678;9.158;2023-08-06T06:24:00;0.95;;;0.43;;
13432;SDS011;6789;47.678;9.158;2023-08-06T06:28:51;1.38;;;0.45;;
13432;SDS011;6789;47.678;9.158;2023-08-06T06:33:43;2.85;;;0.63;;
13432;SDS011;6789;47.678;9.158;2023-08-06T06:38:35;0.45;;;0.40;;
13432;SDS011;6789;47.678;9.158;2023-08-06T06:43:27;1.70;;;0.80;;
13432;SDS011;6789;47.678;9.158;2023-08-06T06:48:19;1.88;;;0.60;;
13432;SDS011;6789;47.678;9.158;2023-08-06T06:53:11;1.55;;;0.60;;
13432;SDS011;6789;47.678;9.158;2023-08-06T06:58:02;0.68;;;0.30;;
13432;SDS011;6789;47.678;9.158;2023-08-06T07:02:54;1.05;;;0.60;;
13432;SDS011;6789;47.678;9.158;2023-08-06T07:07:46;0.80;;;0.40;;
13432;SDS011;6789;47.678;9.158;2023-08-06T07:12:38;1.45;;;0.40;;
13432;SDS011;6789;47.678;9.158;2023-08-06T07:17:30;0.95;;;0.20;;
13432;SDS011;6789;47.678;9.158;2023-08-06T07:22:22;1.48;;;0.40;;
13432;SDS011;6789;47.678;9.158;2023-08-06T07:27:13;1.52;;;0.40;;
13432;SDS011;6789;47.678;9.158;2023-08-06T07:32:06;0.52;;;0.45;;
13432;SDS011;6789;47.678;9.158;2023-08-06T07:36:58;1.95;;;0.35;;
13432;SDS011;6789;47.678;9.158;2023-08-06T07:41:51;0.77;;;0.10;;
13432;SDS011;6789;47.678;9.158;2023-08-06T07:46:44;0.57;;;0.30;;
13432;SDS011;6789;47.678;9.158;2023-08-06T07:51:35;0.60;;;0.15;;
13432;SDS011;6789;47.678;9.158;2023-08-06T07:56:28;1.33;;;0.30;;
13432;SDS011;6789;47.678;9.158;2023-08-06T08:01:19;0.13;;;0.10;;
13432;SDS011;6789;47.678;9.158;2023-08-06T08:06:11;0.30;;;0.15;;
13432;SDS011;6789;47.678;9.158;2023-08-06T08:11:03;0.90;;;0.20;;
13432;SDS011;6789;47.678;9.158;2023-08-06T08:15:56;0.93;;;0.20;;
13432;SDS011;6789;47.678;9.158;2023-08-06T08:20:49;0.32;;;0.20;;
13432;SDS011;6789;47.678;9.158;2023-08-06T08:25:41;2.05;;;0.90;;
13432;SDS011;6789;47.678;9.158;2023-08-06T08:30:33;0.40;;;0.20;;
13432;SDS011;6789;47.678;9.158;2023-08-06T08:35:26;0.20;;;0.15;;
13432;SDS011;6789;47.678;9.158;2023-08-06T08:40:17;0.20;;;0.20;;
13432;SDS011;6789;47.678;9.158;2023-08-06T08:45:13;0.47;;;0.28;;
13432;SDS011;6789;47.678;9.158;2023-08-06T08:50:07;1.00;;;0.32;;
13432;SDS011;6789;47.678;9.158;2023-08-06T08:55:01;0.98;;;0.25;;
13432;SDS011;6789;47.678;9.158;2023-08-06T08:59:56;1.20;;;0.28;;
13432;SDS011;6789;47.678;9.158;2023-08-06T09:04:48;0.40;;;0.20;;
13432;SDS011;6789;47.678;9.158;2023-08-06T09:09:40;0.43;;;0.30;;
13432;SDS011;6789;47.678;9.158;2023-08-06T09:14:37;0.10;;;0.00;;
13432;SDS011;6789;47.678;9.158;2023-08-06T09:19:43;0.00;;;0.00;;
13432;SDS011;6789;47.678;9.158;2023-08-06T09:24:38;0.82;;;0.30;;
13432;SDS011;6789;47.678;9.158;2023-08-06T09:29:32;0.75;;;0.40;;
13432;SDS011;6789;47.678;9.158;2023-08-06T09:34:24;1.17;;;0.10;;
13432;SDS011;6789;47.678;9.158;2023-08-06T09:39:20;0.10;;;0.03;;
13432;SDS011;6789;47.678;9.158;2023-08-06T09:44:18;0.10;;;0.10;;
13432;SDS011;6789;47.678;9.158;2023-08-06T09:49:13;0.30;;;0.20;;
13432;SDS011;6789;47.678;9.158;2023-08-06T09:54:06;0.40;;;0.30;;
13432;SDS011;6789;47.678;9.158;2023-08-06T09:59:17;0.63;;;0.22;;
13432;SDS011;6789;47.678;9.158;2023-08-06T10:04:10;0.30;;;0.10;;
13432;SDS011;6789;47.678;9.158;2023-08-06T10:09:14;0.10;;;0.10;;
13432;SDS011;6789;47.678;9.158;2023-08-06T10:19:30;0.10;;;0.10;;
13432;SDS011;6789;47.678;9.158;2023-08-06T10:24:23;0.17;;;0.10;;
13432;SDS011;6789;47.678;9.158;2023-08-06T10:39:49;0.38;;;0.20;;
13432;SDS011;6789;47.678;9.158;2023-08-06T10:45:10;0.10;;;0.10;;
13432;SDS011;6789;47.678;9.158;2023-08-06T10:50:11;0.38;;;0.20;;
13432;SDS011;6789;47.678;9.158;2023-08-06T10:55:05;0.20;;;0.10;;
13432;SDS011;6789;47.678;9.158;2023-08-06T10:59:58;0.20;;;0.10;;
13432;SDS011;6789;47.678;9.158;2023-08-06T11:05:08;0.00;;;0.00;;
13432;SDS011;6789;47.678;9.158;2023-08-06T11:10:02;0.15;;;0.00;;
13432;SDS011;6789;47.678;9.158;2023-08-06T11:15:00;0.40;;;0.10;;
13432;SDS011;6789;47.678;9.158;2023-08-06T11:19:53;0.10;;;0.00;;
13432;SDS011;6789;47.678;9.158;2023-08-06T11:24:45;0.10;;;0.10;;
13432;SDS011;6789;47.678;9.158;2023-08-06T11:29:38;0.10;;;0.10;;
13432;SDS011;6789;47.678;9.158;2023-08-06T11:34:29;0.05;;;0.05;;
13432;SDS011;6789;47.678;9.158;2023-08-06T11:39:22;0.10;;;0.08;;
13432;SDS011;6789;47.678;9.158;2023-08-06T11:44:15;0.30;;;0.10;;
13432;SDS011;6789;47.678;9.158;2023-08-06T11:49:19;0.35;;;0.10;;
13432;SDS011;6789;47.678;9.158;2023-08-06T11:54:12;0.10;;;0.10;;
13432;SDS011;6789;47.678;9.158;2023-08-06T11:59:18;0.10;;;0.10;;
13432;SDS011;6789;47.678;9.158;2023-08-06T12:04:13;0.35;;;0.10;;
13432;SDS011;6789;47.678;9.158;2023-08-06T12:09:05;0.03;;;0.00;;
13432;SDS011;6789;47.678;9.158;2023-08-06T12:13:57;0.35;;;0.20;;
13432;SDS011;6789;47.678;9.158;2023-08-06T12:18:50;0.65;;;0.17;;
13432;SDS011;6789;47.678;9.158;2023-08-06T12:23:42;2.05;;;0.00;;
13432;SDS011;6789;47.678;9.158;2023-08-06T12:28:34;0.10;;;0.00;;
13432;SDS011;6789;47.678;9.158;2023-08-06T12:33:27;0.30;;;0.20;;
13432;SDS011;6789;47.678;9.158;2023-08-06T12:38:33;0.10;;;0.10;;
13432;SDS011;6789;47.678;9.158;2023-08-06T12:43:25;1.08;;;0.17;;
13432;SDS011;6789;47.678;9.158;2023-08-06T12:48:17;0.00;;;0.00;;
13432;SDS011;6789;47.678;9.158;2023-08-06T12:53:24;1.13;;;0.15;;
13432;SDS011;6789;47.678;9.158;2023-08-06T12:58:15;5.45;;;0.52;;
13432;SDS011;6789;47.678;9.158;2023-08-06T13:03:13;0.10;;;0.10;;
13432;SDS011;6789;47.678;9.158;2023-08-06T13:08:05;0.75;;;0.20;;
13432;SDS011;6789;47.678;9.158;2023-08-06T13:13:10;0.38;;;0.38;;
13432;SDS011;6789;47.678;9.158;2023-08-06T13:18:10;0.22;;;0.20;;
13432;SDS011;6789;47.678;9.158;2023-08-06T13:23:06;0.10;;;0.10;;
13432;SDS011;6789;47.678;9.158;2023-08-06T13:28:12;0.30;;;0.20;;
13432;SDS011;6789;47.678;9.158;2023-08-06T13:33:05;0.88;;;0.38;;
13432;SDS011;6789;47.678;9.158;2023-08-06T13:37:59;0.75;;;0.30;;
13432;SDS011;6789;47.678;9.158;2023-08-06T13:42:53;0.77;;;0.40;;
13432;SDS011;6789;47.678;9.158;2023-08-06T13:47:50;0.57;;;0.50;;
13432;SDS011;6789;47.678;9.158;2023-08-06T13:52:42;0.80;;;0.40;;
13432;SDS011;6789;47.678;9.158;2023-08-06T13:57:34;0.20;;;0.20;;
13432;SDS011;6789;47.678;9.158;2023-08-06T14:02:29;0.50;;;0.30;;
13432;SDS011;6789;47.678;9.158;2023-08-06T14:07:35;0.15;;;0.15;;
13432;SDS011;6789;47.678;9.158;2023-08-06T14:12:27;0.57;;;0.40;;
13432;SDS011;6789;47.678;9.158;2023-08-06T14:17:19;0.70;;;0.50;;
13432;SDS011;6789;47.678;9.158;2023-08-06T14:22:10;3.10;;;0.50;;
13432;SDS011;6789;47.678;9.158;2023-08-06T14:27:02;1.08;;;0.57;;
13432;SDS011;6789;47.678;9.158;2023-08-06T14:31:55;1.60;;;0.45;;
13432;SDS011;6789;47.678;9.158;2023-08-06T14:36:47;3.30;;;0.75;;
13432;SDS011;6789;47.678;9.158;2023-08-06T14:41:38;0.85;;;0.70;;
13432;SDS011;6789;47.678;9.158;2023-08-06T14:46:30;0.50;;;0.50;;
13432;SDS011;6789;47.678;9.158;2023-08-06T14:51:22;0.68;;;0.60;;
13432;SDS011;6789;47.678;9.158;2023-08-06T14:56:14;1.15;;;0.63;;
13432;SDS011;6789;47.678;9.158;2023-08-06T15:01:20;0.95;;;0.40;;
13432;SDS011;6789;47.678;9.158;2023-08-06T15:06:12;1.38;;;0.65;;
13432;SDS011;6789;47.678;9.158;2023-08-06T15:11:03;0.98;;;0.77;;
13432;SDS011;6789;47.678;9.158;2023-08-06T15:15:55;1.48;;;0.52;;
13432;SDS011;6789;47.678;9.158;2023-08-06T15:20:47;2.22;;;0.60;;
13432;SDS011;6789;47.678;9.158;2023-08-06T15:25:41;0.75;;;0.40;;
13432;SDS011;6789;47.678;9.158;2023-08-06T15:30:33;1.58;;;0.65;;
13432;SDS011;6789;47.678;9.158;2023-08-06T15:35:25;0.80;;;0.63;;
13432;SDS011;6789;47.678;9.158;2023-08-06T15:40:16;0.50;;;0.50;;
13432;SDS011;6789;47.678;9.158;2023-08-06T15:45:08;1.58;;;0.77;;
13432;SDS011;6789;47.678;9.158;2023-08-06T15:50:02;0.88;;;0.40;;
13432;SDS011;6789;47.678;9.158;2023-08-06T15:55:04;0.55;;;0.55;;
13432;SDS011;6789;47.678;9.158;2023-08-06T15:59:57;1.85;;;0.75;;
13432;SDS011;6789;47.678;9.158;2023-08-06T16:04:49;1.48;;;0.75;;
13432;SDS011;6789;47.678;9.158;2023-08-06T16:09:42;0.68;;;0.68;;
13432;SDS011;6789;47.678;9.158;2023-08-06T16:14:35;1.52;;;0.50;;
13432;SDS011;6789;47.678;9.158;2023-08-06T16:19:28;1.20;;;0.80;;
13432;SDS011;6789;47.678;9.158;2023-08-06T16:24:20;0.75;;;0.70;;
13432;SDS011;6789;47.678;9.158;2023-08-06T16:29:25;1.38;;;0.80;;
13432;SDS011;6789;47.678;9.158;2023-08-06T16:34:32;1.25;;;0.80;;
13432;SDS011;6789;47.678;9.158;2023-08-06T16:39:24;1.38;;;0.85;;
13432;SDS011;6789;47.678;9.158;2023-08-06T16:44:18;1.00;;;0.55;;
13432;SDS011;6789;47.678;9.158;2023-08-06T16:49:10;2.38;;;1.08;;
13432;SDS011;6789;47.678;9.158;2023-08-06T16:54:02;0.75;;;0.75;;
13432;SDS011;6789;47.678;9.158;2023-08-06T16:58:54;0.85;;;0.73;;
13432;SDS011;6789;47.678;9.158;2023-08-06T17:03:46;1.55;;;1.00;;
13432;SDS011;6789;47.678;9.158;2023-08-06T17:08:53;0.85;;;0.82;;
13432;SDS011;6789;47.678;9.158;2023-08-06T17:13:45;1.10;;;1.00;;
13432;SDS011;6789;47.678;9.158;2023-08-06T17:18:38;1.48;;;1.08;;
13432;SDS011;6789;47.678;9.158;2023-08-06T17:23:30;1.17;;;0.63;;
13432;SDS011;6789;47.678;9.158;2023-08-06T17:28:23;1.33;;;0.70;;
13432;SDS011;6789;47.678;9.158;2023-08-06T17:33:15;1.58;;;0.93;;
13432;SDS011;6789;47.678;9.158;2023-08-06T17:38:11;1.05;;;0.77;;
13432;SDS011;6789;47.678;9.158;2023-08-06T17:43:03;1.08;;;0.80;;
13432;SDS011;6789;47.678;9.158;2023-08-06T17:47:56;1.55;;;0.88;;
13432;SDS011;6789;47.678;9.158;2023-08-06T17:52:49;4.80;;;0.90;;
13432;SDS011;6789;47.678;9.158;2023-08-06T17:57:41;1.38;;;1.00;;
13432;SDS011;6789;47.678;9.158;2023-08-06T18:02:33;3.80;;;0.93;;
13432;SDS011;6789;47.678;9.158;2023-08-06T18:07:26;1.50;;;1.20;;
13432;SDS011;6789;47.678;9.158;2023-08-06T18:12:18;4.80;;;0.90;;
13432;SDS011;6789;47.678;9.158;2023-08-06T18:17:11;3.75;;;1.10;;
13432;SDS011;6789;47.678;9.158;2023-08-06T18:22:03;1.25;;;0.98;;
13432;SDS011;6789;47.678;9.158;2023-08-06T18:26:59;1.10;;;0.90;;
13432;SDS011;6789;47.678;9.158;2023-08-06T18:31:53;1.25;;;0.95;;
13432;SDS011;6789;47.678;9.158;2023-08-06T18:36:46;2.25;;;0.90;;
13432;SDS011;6789;47.678;9.158;2023-08-06T18:41:38;1.60;;;1.00;;
13432;SDS011;6789;47.678;9.158;2023-08-06T18:46:31;1.92;;;1.05;;
13432;SDS011;6789;47.678;9.158;2023-08-06T18:51:36;2.50;;;1.00;;
13432;SDS011;6789;47.678;9.158;2023-08-06T18:56:31;2.88;;;1.10;;
13432;SDS011;6789;47.678;9.158;2023-08-06T19:01:27;1.42;;;1.02;;
13432;SDS011;6789;47.678;9.158;2023-08-06T19:06:18;2.38;;;1.10;;
13432;SDS011;6789;47.678;9.158;2023-08-06T19:11:10;1.70;;;1.10;;
13432;SDS011;6789;47.678;9.158;2023-08-06T19:16:16;4.95;;;1.30;;
13432;SDS011;6789;47.678;9.158;2023-08-06T19:21:10;2.75;;;1.13;;
13432;SDS011;6789;47.678;9.158;2023-08-06T19:26:04;1.45;;;1.05;;
13432;SDS011;6789;47.678;9.158;2023-08-06T19:31:09;3.17;;;1.10;;
13432;SDS011;6789;47.678;9.158;2023-08-06T19:36:02;1.50;;;1.20;;
13432;SDS011;6789;47.678;9.158;2023-08-06T19:41:05;2.20;;;1.10;;
13432;SDS011;6789;47.678;9.158;2023-08-06T19:46:00;2.67;;;1.13;;
13432;SDS011;6789;47.678;9.158;2023-08-06T19:50:54;2.70;;;1.27;;
13432;SDS011;6789;47.678;9.158;2023-08-06T19:55:52;1.80;;;1.10;;
13432;SDS011;6789;47.678;9.158;2023-08-06T20:00:47;2.60;;;1.20;;
13432;SDS011;6789;47.678;9.158;2023-08-06T20:05:39;1.52;;;1.20;;
13432;SDS011;6789;47.678;9.158;2023-08-06T20:10:32;1.50;;;1.15;;
13432;SDS011;6789;47.678;9.158;2023-08-06T20:15:27;3.33;;;1.08;;
13432;SDS011;6789;47.678;9.158;2023-08-06T20:20:23;2.88;;;1.10;;
13432;SDS011;6789;47.678;9.158;2023-08-06T20:25:29;1.35;;;1.00;;
13432;SDS011;6789;47.678;9.158;2023-08-06T20:30:24;1.92;;;1.30;;
13432;SDS011;6789;47.678;9.158;2023-08-06T20:35:16;1.98;;;1.40;;
13432;SDS011;6789;47.678;9.158;2023-08-06T20:40:08;2.47;;;1.00;;
13432;SDS011;6789;47.678;9.158;2023-08-06T20:45:00;3.15;;;1.73;;
13432;SDS011;6789;47.678;9.158;2023-08-06T20:49:52;2.95;;;1.33;;
13432;SDS011;6789;47.678;9.158;2023-08-06T20:54:44;2.53;;;1.17;;
13432;SDS011;6789;47.678;9.158;2023-08-06T20:59:36;1.20;;;1.10;;
13432;SDS011;6789;47.678;9.158;2023-08-06T21:04:29;3.30;;;1.40;;
13432;SDS011;6789;47.678;9.158;2023-08-06T21:09:21;1.42;;;1.15;;
13432;SDS011;6789;47.678;9.158;2023-08-06T21:14:13;1.30;;;1.20;;
13432;SDS011;6789;47.678;9.158;2023-08-06T21:19:05;1.95;;;1.38;;
13432;SDS011;6789;47.678;9.158;2023-08-06T21:23:58;2.40;;;1.42;;
13432;SDS011;6789;47.678;9.158;2023-08-06T21:28:50;2.60;;;1.20;;
13432;SDS011;6789;47.678;9.158;2023-08-06T21:33:42;1.80;;;1.30;;
13432;SDS011;6789;47.678;9.158;2023-08-06T21:38:48;1.90;;;1.20;;
13432;SDS011;6789;47.678;9.158;2023-08-06T21:43:44;3.30;;;1.27;;
13432;SDS011;6789;47.678;9.158;2023-08-06T21:48:41;1.48;;;1.08;;
13432;SDS011;6789;47.678;9.158;2023-08-06T21:53:36;1.95;;;1.20;;
13432;SDS011;6789;47.678;9.158;2023-08-06T21:58:29;1.63;;;1.20;;
13432;SDS011;6789;47.678;9.158;2023-08-06T22:03:21;2.70;;;1.15;;
13432;SDS011;6789;47.678;9.158;2023-08-06T22:08:14;2.25;;;1.20;;
13432;SDS011;6789;47.678;9.158;2023-08-06T22:13:07;2.55;;;1.42;;
13432;SDS011;6789;47.678;9.158;2023-08-06T22:18:00;1.60;;;1.00;;
13432;SDS011;6789;47.678;9.158;2023-08-06T22:22:52;1.45;;;1.13;;
13432;SDS011;6789;47.678;9.158;2023-08-06T22:27:44;2.20;;;1.48;;
13432;SDS011;6789;47.678;9.158;2023-08-06T22:32:36;1.88;;;1.20;;
13432;SDS011;6789;47.678;9.158;2023-08-06T22:37:29;3.03;;;1.00;;
13432;SDS011;6789;47.678;9.158;2023-08-06T22:42:20;1.42;;;1.08;;
13432;SDS011;6789;47.678;9.158;2023-08-06T22:47:12;2.17;;;1.35;;
13432;SDS011;6789;47.678;9.158;2023-08-06T22:52:04;1.58;;;1.10;;
13432;SDS011;6789;47.678;9.158;2023-08-06T22:56:56;1.50;;;1.10;;
13432;SDS011;6789;47.678;9.158;2023-08-06T23:01:48;2.05;;;1.05;;
13432;SDS011;6789;47.678;9.158;2023-08-06T23:06:40;2.13;;;1.08;;
13432;SDS011;6789;47.678;9.158;2023-08-06T23:11:31;2.50;;;1.30;;
13432;SDS011;6789;47.678;9.158;2023-08-06T23:16:25;1.92;;;1.17;;
13432;SDS011;6789;47.678;9.158;2023-08-06T23:21:16;1.73;;;1.00;;
13432;SDS011;6789;47.678;9.158;2023-08-06T23:26:08;2.35;;;1.30;;
13432;SDS011;6789;47.678;9.158;2023-08-06T23:31:00;1.38;;;1.00;;
13432;SDS011;6789;47.678;9.158;2023-08-06T23:36:00;1.75;;;1.20;;
13432;SDS011;6789;47.678;9.158;2023-08-06T23:40:52;3.00;;;1.30;;
13432;SDS011;6789;47.678;9.158;2023-08-06T23:45:44;2.80;;;1.43;;
13432;SDS011;6789;47.678;9.158;2023-08-06T23:50:36;3.47;;;1.15;;
13432;SDS011;6789;47.678;9.158;2023-08-06T23:55:28;3.35;;;1.67;;
